sensor_id;sensor_type;location;lat;lon;timestamp;pressure;altitude;pressure_sealevel;temperature;humidity
51067;BME280;37112;45.892;-123.962;2023-01-31T00:01:52;102679.59;;;7.38;37.89
51067;BME280;37112;45.892;-123.962;2023-01-31T00:04:03;102679.40;;;7.38;38.16
51067;BME280;37112;45.892;-123.962;2023-01-31T00:06:15;102677.89;;;7.35;37.86
51067;BME280;37112;45.892;-123.962;2023-01-31T00:08:26;102684.52;;;7.31;37.94
51067;BME280;37112;45.892;-123.962;2023-01-31T00:10:36;102691.86;;;7.27;38.15
51067;BME280;37112;45.892;-123.962;2023-01-31T00:12:46;102698.66;;;7.23;38.39
51067;BME280;37112;45.892;-123.962;2023-01-31T00:14:57;102698.05;;;7.18;38.33
51067;BME280;37112;45.892;-123.962;2023-01-31T00:17:09;102687.02;;;7.14;39.04
51067;BME280;37112;45.892;-123.962;2023-01-31T00:19:19;102687.85;;;7.09;39.59
51067;BME280;37112;45.892;-123.962;2023-01-31T00:21:30;102685.83;;;7.04;39.68
51067;BME280;37112;45.892;-123.962;2023-01-31T00:23:41;102680.81;;;6.98;40.01
51067;BME280;37112;45.892;-123.962;2023-01-31T00:25:51;102681.27;;;6.93;40.06
51067;BME280;37112;45.892;-123.962;2023-01-31T00:28:01;102679.30;;;6.87;40.17
51067;BME280;37112;45.892;-123.962;2023-01-31T00:30:14;102678.20;;;6.80;40.25
51067;BME280;37112;45.892;-123.962;2023-01-31T00:32:24;102674.83;;;6.72;40.53
51067;BME280;37112;45.892;-123.962;2023-01-31T00:34:35;102680.41;;;6.67;40.84
51067;BME280;37112;45.892;-123.962;2023-01-31T00:36:45;102684.94;;;6.61;41.05
51067;BME280;37112;45.892;-123.962;2023-01-31T00:38:57;102683.65;;;6.55;41.22
51067;BME280;37112;45.892;-123.962;2023-01-31T00:41:07;102688.18;;;6.49;41.36
51067;BME280;37112;45.892;-123.962;2023-01-31T00:43:19;102683.88;;;6.43;41.83
51067;BME280;37112;45.892;-123.962;2023-01-31T00:45:28;102681.71;;;6.36;41.73
51067;BME280;37112;45.892;-123.962;2023-01-31T00:47:38;102684.14;;;6.29;41.81
51067;BME280;37112;45.892;-123.962;2023-01-31T00:49:48;102689.72;;;6.23;42.01
51067;BME280;37112;45.892;-123.962;2023-01-31T00:51:57;102694.40;;;6.18;42.14
51067;BME280;37112;45.892;-123.962;2023-01-31T00:54:07;102690.43;;;6.12;41.99
51067;BME280;37112;45.892;-123.962;2023-01-31T00:56:20;102682.60;;;6.06;42.47
51067;BME280;37112;45.892;-123.962;2023-01-31T00:58:30;102683.41;;;6.00;42.52
51067;BME280;37112;45.892;-123.962;2023-01-31T01:00:40;102682.27;;;5.95;42.68
51067;BME280;37112;45.892;-123.962;2023-01-31T01:02:51;102684.98;;;5.89;42.84
51067;BME280;37112;45.892;-123.962;2023-01-31T01:05:02;102681.70;;;5.84;43.22
51067;BME280;37112;45.892;-123.962;2023-01-31T01:07:12;102683.55;;;5.79;43.66
51067;BME280;37112;45.892;-123.962;2023-01-31T01:09:22;102677.29;;;5.75;43.81
51067;BME280;37112;45.892;-123.962;2023-01-31T01:11:33;102677.89;;;5.69;43.76
51067;BME280;37112;45.892;-123.962;2023-01-31T01:13:44;102675.34;;;5.64;43.91
51067;BME280;37112;45.892;-123.962;2023-01-31T01:15:54;102672.61;;;5.58;43.92
51067;BME280;37112;45.892;-123.962;2023-01-31T01:18:05;102674.48;;;5.51;43.88
51067;BME280;37112;45.892;-123.962;2023-01-31T01:20:18;102668.25;;;5.44;44.04
51067;BME280;37112;45.892;-123.962;2023-01-31T01:22:27;102663.75;;;5.38;44.20
51067;BME280;37112;45.892;-123.962;2023-01-31T01:24:38;102664.02;;;5.31;44.52
51067;BME280;37112;45.892;-123.962;2023-01-31T01:26:48;102662.55;;;5.24;44.71
51067;BME280;37112;45.892;-123.962;2023-01-31T01:29:00;102665.13;;;5.16;44.92
51067;BME280;37112;45.892;-123.962;2023-01-31T01:31:11;102667.88;;;5.09;45.08
51067;BME280;37112;45.892;-123.962;2023-01-31T01:33:24;102664.08;;;5.02;45.24
51067;BME280;37112;45.892;-123.962;2023-01-31T01:35:34;102667.16;;;4.96;45.63
51067;BME280;37112;45.892;-123.962;2023-01-31T01:37:44;102663.88;;;4.90;45.80
51067;BME280;37112;45.892;-123.962;2023-01-31T01:39:54;102650.95;;;4.84;45.84
51067;BME280;37112;45.892;-123.962;2023-01-31T01:42:04;102647.86;;;4.77;46.20
51067;BME280;37112;45.892;-123.962;2023-01-31T01:44:46;102648.66;;;4.69;46.40
51067;BME280;37112;45.892;-123.962;2023-01-31T01:46:56;102647.02;;;4.60;46.81
51067;BME280;37112;45.892;-123.962;2023-01-31T01:49:14;102650.98;;;4.52;47.10
51067;BME280;37112;45.892;-123.962;2023-01-31T01:51:27;102651.44;;;4.42;47.30
51067;BME280;37112;45.892;-123.962;2023-01-31T01:53:41;102648.91;;;4.32;47.66
51067;BME280;37112;45.892;-123.962;2023-01-31T01:55:53;102643.38;;;4.24;47.74
51067;BME280;37112;45.892;-123.962;2023-01-31T01:58:07;102636.41;;;4.17;47.89
51067;BME280;37112;45.892;-123.962;2023-01-31T02:00:20;102632.77;;;4.10;48.07
51067;BME280;37112;45.892;-123.962;2023-01-31T02:02:31;102630.03;;;4.04;48.37
51067;BME280;37112;45.892;-123.962;2023-01-31T02:04:43;102628.34;;;3.97;48.56
51067;BME280;37112;45.892;-123.962;2023-01-31T02:06:55;102626.30;;;3.91;48.65
51067;BME280;37112;45.892;-123.962;2023-01-31T02:09:10;102624.78;;;3.84;48.73
51067;BME280;37112;45.892;-123.962;2023-01-31T02:11:24;102617.47;;;3.76;48.93
51067;BME280;37112;45.892;-123.962;2023-01-31T02:13:39;102616.64;;;3.70;49.26
51067;BME280;37112;45.892;-123.962;2023-01-31T02:15:53;102609.15;;;3.62;49.40
51067;BME280;37112;45.892;-123.962;2023-01-31T02:18:03;102609.36;;;3.57;49.49
51067;BME280;37112;45.892;-123.962;2023-01-31T02:20:41;102615.22;;;3.51;49.75
51067;BME280;37112;45.892;-123.962;2023-01-31T02:23:06;102606.52;;;3.41;49.89
51067;BME280;37112;45.892;-123.962;2023-01-31T02:26:00;102605.52;;;3.33;50.31
51067;BME280;37112;45.892;-123.962;2023-01-31T02:28:43;102604.18;;;3.25;50.41
51067;BME280;37112;45.892;-123.962;2023-01-31T02:33:39;102609.18;;;3.12;50.85
51067;BME280;37112;45.892;-123.962;2023-01-31T02:36:03;102609.01;;;3.10;50.99
51067;BME280;37112;45.892;-123.962;2023-01-31T02:38:28;102612.89;;;3.07;51.01
51067;BME280;37112;45.892;-123.962;2023-01-31T02:40:45;102623.08;;;3.04;51.12
51067;BME280;37112;45.892;-123.962;2023-01-31T02:43:02;102619.95;;;2.99;51.42
51067;BME280;37112;45.892;-123.962;2023-01-31T02:45:21;102615.06;;;2.96;51.70
51067;BME280;37112;45.892;-123.962;2023-01-31T02:47:42;102614.22;;;2.91;51.89
51067;BME280;37112;45.892;-123.962;2023-01-31T02:49:58;102615.64;;;2.85;52.17
51067;BME280;37112;45.892;-123.962;2023-01-31T02:52:19;102614.27;;;2.79;52.34
51067;BME280;37112;45.892;-123.962;2023-01-31T02:54:37;102609.04;;;2.73;52.59
51067;BME280;37112;45.892;-123.962;2023-01-31T02:57:01;102595.92;;;2.67;52.78
51067;BME280;37112;45.892;-123.962;2023-01-31T02:59:15;102590.14;;;2.62;52.87
51067;BME280;37112;45.892;-123.962;2023-01-31T03:01:31;102575.27;;;2.56;53.20
51067;BME280;37112;45.892;-123.962;2023-01-31T03:03:42;102569.69;;;2.47;53.36
51067;BME280;37112;45.892;-123.962;2023-01-31T03:06:49;102573.41;;;2.42;53.41
51067;BME280;37112;45.892;-123.962;2023-01-31T03:09:11;102582.90;;;2.35;53.51
51067;BME280;37112;45.892;-123.962;2023-01-31T03:11:34;102588.34;;;2.31;53.66
51067;BME280;37112;45.892;-123.962;2023-01-31T03:13:54;102594.69;;;2.25;53.76
51067;BME280;37112;45.892;-123.962;2023-01-31T03:16:16;102601.36;;;2.19;54.02
51067;BME280;37112;45.892;-123.962;2023-01-31T03:18:52;102600.13;;;2.16;54.13
51067;BME280;37112;45.892;-123.962;2023-01-31T03:21:11;102607.69;;;2.12;54.39
51067;BME280;37112;45.892;-123.962;2023-01-31T03:23:25;102610.84;;;2.10;54.58
51067;BME280;37112;45.892;-123.962;2023-01-31T03:25:39;102618.90;;;2.07;54.73
51067;BME280;37112;45.892;-123.962;2023-01-31T03:27:54;102622.77;;;2.04;54.87
51067;BME280;37112;45.892;-123.962;2023-01-31T03:30:11;102615.77;;;2.02;54.91
51067;BME280;37112;45.892;-123.962;2023-01-31T03:32:26;102604.19;;;2.01;55.11
51067;BME280;37112;45.892;-123.962;2023-01-31T03:34:37;102596.66;;;2.00;55.12
51067;BME280;37112;45.892;-123.962;2023-01-31T03:36:52;102596.84;;;1.99;55.31
51067;BME280;37112;45.892;-123.962;2023-01-31T03:39:17;102600.88;;;1.96;55.37
51067;BME280;37112;45.892;-123.962;2023-01-31T03:41:41;102594.58;;;1.93;55.35
51067;BME280;37112;45.892;-123.962;2023-01-31T03:44:00;102588.98;;;1.87;55.30
51067;BME280;37112;45.892;-123.962;2023-01-31T03:46:15;102585.48;;;1.82;55.35
51067;BME280;37112;45.892;-123.962;2023-01-31T03:48:32;102592.14;;;1.79;55.41
51067;BME280;37112;45.892;-123.962;2023-01-31T03:50:46;102586.88;;;1.77;55.67
51067;BME280;37112;45.892;-123.962;2023-01-31T03:53:03;102592.15;;;1.76;55.64
51067;BME280;37112;45.892;-123.962;2023-01-31T03:55:18;102593.55;;;1.75;55.55
51067;BME280;37112;45.892;-123.962;2023-01-31T03:57:33;102594.26;;;1.73;55.68
51067;BME280;37112;45.892;-123.962;2023-01-31T03:59:46;102593.56;;;1.72;55.85
51067;BME280;37112;45.892;-123.962;2023-01-31T04:01:57;102601.23;;;1.71;56.05
51067;BME280;37112;45.892;-123.962;2023-01-31T04:04:13;102607.73;;;1.70;56.03
51067;BME280;37112;45.892;-123.962;2023-01-31T04:06:24;102614.73;;;1.69;56.17
51067;BME280;37112;45.892;-123.962;2023-01-31T04:08:35;102612.11;;;1.69;56.18
51067;BME280;37112;45.892;-123.962;2023-01-31T04:10:47;102610.19;;;1.68;56.26
51067;BME280;37112;45.892;-123.962;2023-01-31T04:12:58;102603.36;;;1.68;56.43
51067;BME280;37112;45.892;-123.962;2023-01-31T04:15:11;102597.41;;;1.67;56.35
51067;BME280;37112;45.892;-123.962;2023-01-31T04:17:19;102600.75;;;1.66;56.46
51067;BME280;37112;45.892;-123.962;2023-01-31T04:19:29;102600.22;;;1.63;56.58
51067;BME280;37112;45.892;-123.962;2023-01-31T04:21:39;102602.31;;;1.60;56.49
51067;BME280;37112;45.892;-123.962;2023-01-31T04:23:49;102601.10;;;1.58;56.39
51067;BME280;37112;45.892;-123.962;2023-01-31T04:25:59;102602.15;;;1.57;56.52
51067;BME280;37112;45.892;-123.962;2023-01-31T04:28:10;102598.65;;;1.58;56.48
51067;BME280;37112;45.892;-123.962;2023-01-31T04:30:20;102598.83;;;1.58;56.49
51067;BME280;37112;45.892;-123.962;2023-01-31T04:32:30;102606.88;;;1.58;56.49
51067;BME280;37112;45.892;-123.962;2023-01-31T04:34:40;102613.17;;;1.59;56.40
51067;BME280;37112;45.892;-123.962;2023-01-31T04:36:50;102605.81;;;1.60;56.49
51067;BME280;37112;45.892;-123.962;2023-01-31T04:39:00;102606.17;;;1.59;56.56
51067;BME280;37112;45.892;-123.962;2023-01-31T04:41:10;102610.55;;;1.59;56.58
51067;BME280;37112;45.892;-123.962;2023-01-31T04:43:20;102615.46;;;1.57;56.59
51067;BME280;37112;45.892;-123.962;2023-01-31T04:45:30;102622.98;;;1.56;56.74
51067;BME280;37112;45.892;-123.962;2023-01-31T04:47:40;102630.33;;;1.56;56.86
51067;BME280;37112;45.892;-123.962;2023-01-31T04:49:50;102632.08;;;1.56;56.89
51067;BME280;37112;45.892;-123.962;2023-01-31T04:52:00;102637.69;;;1.54;56.82
51067;BME280;37112;45.892;-123.962;2023-01-31T04:54:10;102636.63;;;1.51;56.90
51067;BME280;37112;45.892;-123.962;2023-01-31T04:56:20;102640.64;;;1.48;57.11
51067;BME280;37112;45.892;-123.962;2023-01-31T04:58:31;102641.34;;;1.48;57.23
51067;BME280;37112;45.892;-123.962;2023-01-31T05:00:40;102639.95;;;1.49;57.25
51067;BME280;37112;45.892;-123.962;2023-01-31T05:02:52;102640.45;;;1.48;57.29
51067;BME280;37112;45.892;-123.962;2023-01-31T05:05:02;102641.88;;;1.47;57.36
51067;BME280;37112;45.892;-123.962;2023-01-31T05:07:12;102642.40;;;1.46;57.55
51067;BME280;37112;45.892;-123.962;2023-01-31T05:09:21;102648.35;;;1.45;57.54
51067;BME280;37112;45.892;-123.962;2023-01-31T05:11:32;102656.05;;;1.44;57.45
51067;BME280;37112;45.892;-123.962;2023-01-31T05:13:41;102659.55;;;1.41;57.64
51067;BME280;37112;45.892;-123.962;2023-01-31T05:15:52;102660.41;;;1.37;57.79
51067;BME280;37112;45.892;-123.962;2023-01-31T05:18:03;102656.73;;;1.33;57.95
51067;BME280;37112;45.892;-123.962;2023-01-31T05:20:13;102661.45;;;1.29;57.98
51067;BME280;37112;45.892;-123.962;2023-01-31T05:22:23;102662.86;;;1.26;58.03
51067;BME280;37112;45.892;-123.962;2023-01-31T05:24:34;102657.43;;;1.25;58.13
51067;BME280;37112;45.892;-123.962;2023-01-31T05:26:44;102658.99;;;1.25;58.13
51067;BME280;37112;45.892;-123.962;2023-01-31T05:28:55;102661.95;;;1.23;58.29
51067;BME280;37112;45.892;-123.962;2023-01-31T05:31:06;102665.64;;;1.20;58.37
51067;BME280;37112;45.892;-123.962;2023-01-31T05:33:16;102660.02;;;1.17;58.51
51067;BME280;37112;45.892;-123.962;2023-01-31T05:35:27;102656.70;;;1.13;58.60
51067;BME280;37112;45.892;-123.962;2023-01-31T05:37:37;102652.83;;;1.09;58.67
51067;BME280;37112;45.892;-123.962;2023-01-31T05:39:49;102646.54;;;1.04;58.77
51067;BME280;37112;45.892;-123.962;2023-01-31T05:41:59;102643.04;;;1.02;58.80
51067;BME280;37112;45.892;-123.962;2023-01-31T05:44:09;102649.86;;;1.02;58.84
51067;BME280;37112;45.892;-123.962;2023-01-31T05:46:19;102652.83;;;1.03;58.83
51067;BME280;37112;45.892;-123.962;2023-01-31T05:48:29;102648.64;;;1.04;58.90
51067;BME280;37112;45.892;-123.962;2023-01-31T05:50:40;102639.71;;;1.03;58.90
51067;BME280;37112;45.892;-123.962;2023-01-31T05:52:54;102641.11;;;1.03;58.81
51067;BME280;37112;45.892;-123.962;2023-01-31T05:55:08;102639.54;;;1.02;58.84
51067;BME280;37112;45.892;-123.962;2023-01-31T05:57:18;102636.89;;;1.00;58.91
51067;BME280;37112;45.892;-123.962;2023-01-31T05:59:28;102636.88;;;0.97;58.99
51067;BME280;37112;45.892;-123.962;2023-01-31T06:01:40;102631.99;;;0.94;59.09
51067;BME280;37112;45.892;-123.962;2023-01-31T06:03:50;102640.89;;;0.92;59.12
51067;BME280;37112;45.892;-123.962;2023-01-31T06:06:00;102648.40;;;0.90;59.33
51067;BME280;37112;45.892;-123.962;2023-01-31T06:08:12;102655.75;;;0.88;59.37
51067;BME280;37112;45.892;-123.962;2023-01-31T06:10:22;102660.27;;;0.85;59.48
51067;BME280;37112;45.892;-123.962;2023-01-31T06:12:32;102656.06;;;0.82;59.52
51067;BME280;37112;45.892;-123.962;2023-01-31T06:14:43;102647.51;;;0.80;59.60
51067;BME280;37112;45.892;-123.962;2023-01-31T06:16:53;102644.70;;;0.78;59.66
51067;BME280;37112;45.892;-123.962;2023-01-31T06:19:03;102638.20;;;0.76;59.78
51067;BME280;37112;45.892;-123.962;2023-01-31T06:21:13;102631.91;;;0.72;59.97
51067;BME280;37112;45.892;-123.962;2023-01-31T06:23:23;102627.52;;;0.67;59.98
51067;BME280;37112;45.892;-123.962;2023-01-31T06:25:33;102618.05;;;0.62;60.22
51067;BME280;37112;45.892;-123.962;2023-01-31T06:27:43;102615.41;;;0.57;60.38
51067;BME280;37112;45.892;-123.962;2023-01-31T06:29:53;102608.06;;;0.54;60.38
51067;BME280;37112;45.892;-123.962;2023-01-31T06:32:03;102605.77;;;0.54;60.53
51067;BME280;37112;45.892;-123.962;2023-01-31T06:34:13;102604.55;;;0.53;60.50
51067;BME280;37112;45.892;-123.962;2023-01-31T06:36:24;102596.51;;;0.51;60.62
51067;BME280;37112;45.892;-123.962;2023-01-31T06:38:34;102596.50;;;0.51;60.69
51067;BME280;37112;45.892;-123.962;2023-01-31T06:40:44;102596.33;;;0.49;60.71
51067;BME280;37112;45.892;-123.962;2023-01-31T06:42:54;102594.23;;;0.49;60.71
51067;BME280;37112;45.892;-123.962;2023-01-31T06:45:06;102595.45;;;0.49;60.68
51067;BME280;37112;45.892;-123.962;2023-01-31T06:47:16;102597.02;;;0.50;60.67
51067;BME280;37112;45.892;-123.962;2023-01-31T06:49:26;102599.13;;;0.50;60.66
51067;BME280;37112;45.892;-123.962;2023-01-31T06:51:37;102601.75;;;0.49;60.64
51067;BME280;37112;45.892;-123.962;2023-01-31T06:53:48;102596.33;;;0.49;60.60
51067;BME280;37112;45.892;-123.962;2023-01-31T06:56:00;102591.09;;;0.47;60.69
51067;BME280;37112;45.892;-123.962;2023-01-31T06:58:10;102577.23;;;0.45;60.70
51067;BME280;37112;45.892;-123.962;2023-01-31T07:00:21;102567.98;;;0.45;60.69
51067;BME280;37112;45.892;-123.962;2023-01-31T07:02:31;102568.16;;;0.46;60.48
51067;BME280;37112;45.892;-123.962;2023-01-31T07:04:42;102571.34;;;0.49;60.37
51067;BME280;37112;45.892;-123.962;2023-01-31T07:06:51;102579.73;;;0.53;60.33
51067;BME280;37112;45.892;-123.962;2023-01-31T07:09:01;102583.25;;;0.54;60.27
51067;BME280;37112;45.892;-123.962;2023-01-31T07:11:11;102583.60;;;0.56;60.28
51067;BME280;37112;45.892;-123.962;2023-01-31T07:13:21;102585.35;;;0.56;60.36
51067;BME280;37112;45.892;-123.962;2023-01-31T07:15:31;102581.50;;;0.58;60.40
51067;BME280;37112;45.892;-123.962;2023-01-31T07:17:41;102588.15;;;0.59;60.44
51067;BME280;37112;45.892;-123.962;2023-01-31T07:19:53;102590.24;;;0.58;60.40
51067;BME280;37112;45.892;-123.962;2023-01-31T07:22:03;102590.94;;;0.60;60.51
51067;BME280;37112;45.892;-123.962;2023-01-31T07:24:12;102590.07;;;0.60;60.57
51067;BME280;37112;45.892;-123.962;2023-01-31T07:26:23;102589.73;;;0.60;60.59
51067;BME280;37112;45.892;-123.962;2023-01-31T07:28:34;102589.55;;;0.59;60.63
51067;BME280;37112;45.892;-123.962;2023-01-31T07:30:45;102586.58;;;0.57;60.60
51067;BME280;37112;45.892;-123.962;2023-01-31T07:32:55;102584.83;;;0.55;60.78
51067;BME280;37112;45.892;-123.962;2023-01-31T07:35:06;102582.70;;;0.53;60.91
51067;BME280;37112;45.892;-123.962;2023-01-31T07:37:16;102581.47;;;0.50;60.95
51067;BME280;37112;45.892;-123.962;2023-01-31T07:39:26;102586.52;;;0.47;61.01
51067;BME280;37112;45.892;-123.962;2023-01-31T07:41:37;102588.78;;;0.45;61.01
51067;BME280;37112;45.892;-123.962;2023-01-31T07:43:47;102585.46;;;0.42;61.15
51067;BME280;37112;45.892;-123.962;2023-01-31T07:45:57;102583.71;;;0.42;61.14
51067;BME280;37112;45.892;-123.962;2023-01-31T07:48:07;102582.48;;;0.41;61.12
51067;BME280;37112;45.892;-123.962;2023-01-31T07:50:18;102586.66;;;0.39;61.11
51067;BME280;37112;45.892;-123.962;2023-01-31T07:52:28;102587.70;;;0.38;61.12
51067;BME280;37112;45.892;-123.962;2023-01-31T07:54:38;102588.39;;;0.36;61.09
51067;BME280;37112;45.892;-123.962;2023-01-31T07:56:48;102587.70;;;0.34;61.04
51067;BME280;37112;45.892;-123.962;2023-01-31T07:58:59;102586.27;;;0.31;61.05
51067;BME280;37112;45.892;-123.962;2023-01-31T08:01:13;102591.51;;;0.28;61.06
51067;BME280;37112;45.892;-123.962;2023-01-31T08:03:41;102596.74;;;0.26;61.02
51067;BME280;37112;45.892;-123.962;2023-01-31T08:05:51;102598.66;;;0.25;61.04
51067;BME280;37112;45.892;-123.962;2023-01-31T08:08:01;102594.48;;;0.25;61.06
51067;BME280;37112;45.892;-123.962;2023-01-31T08:10:18;102592.52;;;0.22;61.11
51067;BME280;37112;45.892;-123.962;2023-01-31T08:12:29;102590.06;;;0.21;61.10
51067;BME280;37112;45.892;-123.962;2023-01-31T08:14:39;102590.77;;;0.19;61.05
51067;BME280;37112;45.892;-123.962;2023-01-31T08:16:49;102592.34;;;0.19;60.97
51067;BME280;37112;45.892;-123.962;2023-01-31T08:18:59;102592.69;;;0.20;60.96
51067;BME280;37112;45.892;-123.962;2023-01-31T08:21:11;102590.59;;;0.20;60.91
51067;BME280;37112;45.892;-123.962;2023-01-31T08:23:21;102590.77;;;0.20;60.82
51067;BME280;37112;45.892;-123.962;2023-01-31T08:25:31;102590.41;;;0.20;60.88
51067;BME280;37112;45.892;-123.962;2023-01-31T08:27:41;102589.54;;;0.19;60.86
51067;BME280;37112;45.892;-123.962;2023-01-31T08:29:51;102585.68;;;0.16;60.93
51067;BME280;37112;45.892;-123.962;2023-01-31T08:32:01;102583.39;;;0.13;60.89
51067;BME280;37112;45.892;-123.962;2023-01-31T08:34:11;102584.26;;;0.10;60.82
51067;BME280;37112;45.892;-123.962;2023-01-31T08:36:22;102583.36;;;0.08;60.77
51067;BME280;37112;45.892;-123.962;2023-01-31T08:38:32;102576.19;;;0.06;60.75
51067;BME280;37112;45.892;-123.962;2023-01-31T08:40:43;102573.05;;;0.05;60.80
51067;BME280;37112;45.892;-123.962;2023-01-31T08:42:56;102567.45;;;0.04;60.77
51067;BME280;37112;45.892;-123.962;2023-01-31T08:45:09;102566.92;;;0.03;60.73
51067;BME280;37112;45.892;-123.962;2023-01-31T08:47:19;102559.94;;;0.02;60.64
51067;BME280;37112;45.892;-123.962;2023-01-31T08:49:29;102559.22;;;-0.00;60.56
51067;BME280;37112;45.892;-123.962;2023-01-31T08:51:40;102558.00;;;-0.00;60.53
51067;BME280;37112;45.892;-123.962;2023-01-31T08:53:52;102559.41;;;0.01;60.42
51067;BME280;37112;45.892;-123.962;2023-01-31T08:56:03;102562.36;;;0.00;60.44
51067;BME280;37112;45.892;-123.962;2023-01-31T08:58:14;102560.62;;;-0.00;60.36
51067;BME280;37112;45.892;-123.962;2023-01-31T09:00:25;102558.85;;;-0.01;60.25
51067;BME280;37112;45.892;-123.962;2023-01-31T09:02:35;102553.96;;;-0.03;60.29
51067;BME280;37112;45.892;-123.962;2023-01-31T09:04:46;102557.10;;;-0.04;60.30
51067;BME280;37112;45.892;-123.962;2023-01-31T09:06:56;102559.90;;;-0.06;60.37
51067;BME280;37112;45.892;-123.962;2023-01-31T09:09:06;102558.11;;;-0.08;60.25
51067;BME280;37112;45.892;-123.962;2023-01-31T09:11:17;102555.66;;;-0.10;60.44
51067;BME280;37112;45.892;-123.962;2023-01-31T09:13:28;102552.17;;;-0.12;60.36
51067;BME280;37112;45.892;-123.962;2023-01-31T09:15:38;102550.07;;;-0.14;60.42
51067;BME280;37112;45.892;-123.962;2023-01-31T09:17:49;102548.29;;;-0.16;60.52
51067;BME280;37112;45.892;-123.962;2023-01-31T09:19:59;102550.03;;;-0.17;60.54
51067;BME280;37112;45.892;-123.962;2023-01-31T09:22:14;102547.23;;;-0.18;60.60
51067;BME280;37112;45.892;-123.962;2023-01-31T09:24:24;102547.41;;;-0.18;60.61
51067;BME280;37112;45.892;-123.962;2023-01-31T09:26:34;102549.67;;;-0.19;60.57
51067;BME280;37112;45.892;-123.962;2023-01-31T09:28:44;102547.58;;;-0.20;60.54
51067;BME280;37112;45.892;-123.962;2023-01-31T09:30:54;102546.70;;;-0.21;60.62
51067;BME280;37112;45.892;-123.962;2023-01-31T09:33:04;102550.20;;;-0.21;60.55
51067;BME280;37112;45.892;-123.962;2023-01-31T09:35:14;102549.15;;;-0.22;60.60
51067;BME280;37112;45.892;-123.962;2023-01-31T09:37:29;102550.35;;;-0.23;60.56
51067;BME280;37112;45.892;-123.962;2023-01-31T09:39:40;102550.19;;;-0.22;60.49
51067;BME280;37112;45.892;-123.962;2023-01-31T09:41:51;102549.84;;;-0.22;60.46
51067;BME280;37112;45.892;-123.962;2023-01-31T09:44:01;102551.59;;;-0.22;60.30
51067;BME280;37112;45.892;-123.962;2023-01-31T09:46:15;102546.52;;;-0.22;60.42
51067;BME280;37112;45.892;-123.962;2023-01-31T09:48:29;102546.83;;;-0.26;60.42
51067;BME280;37112;45.892;-123.962;2023-01-31T09:50:45;102547.35;;;-0.30;60.50
51067;BME280;37112;45.892;-123.962;2023-01-31T09:52:58;102546.10;;;-0.32;60.53
51067;BME280;37112;45.892;-123.962;2023-01-31T09:55:16;102538.75;;;-0.35;60.40
51067;BME280;37112;45.892;-123.962;2023-01-31T09:57:37;102541.55;;;-0.37;60.30
51067;BME280;37112;45.892;-123.962;2023-01-31T09:59:55;102539.27;;;-0.37;60.33
51067;BME280;37112;45.892;-123.962;2023-01-31T10:02:26;102534.20;;;-0.38;60.30
51067;BME280;37112;45.892;-123.962;2023-01-31T10:04:52;102537.70;;;-0.38;60.30
51067;BME280;37112;45.892;-123.962;2023-01-31T10:07:12;102539.09;;;-0.37;60.16
51067;BME280;37112;45.892;-123.962;2023-01-31T10:09:29;102542.23;;;-0.36;60.20
51067;BME280;37112;45.892;-123.962;2023-01-31T10:11:45;102541.37;;;-0.35;60.13
51067;BME280;37112;45.892;-123.962;2023-01-31T10:13:59;102540.67;;;-0.34;60.04
51067;BME280;37112;45.892;-123.962;2023-01-31T10:16:19;102542.80;;;-0.31;60.03
51067;BME280;37112;45.892;-123.962;2023-01-31T10:18:33;102543.69;;;-0.26;59.90
51067;BME280;37112;45.892;-123.962;2023-01-31T10:20:48;102545.64;;;-0.24;59.91
51067;BME280;37112;45.892;-123.962;2023-01-31T10:23:02;102546.17;;;-0.21;59.84
51067;BME280;37112;45.892;-123.962;2023-01-31T10:25:23;102543.39;;;-0.22;59.84
51067;BME280;37112;45.892;-123.962;2023-01-31T10:27:41;102542.66;;;-0.24;59.97
51067;BME280;37112;45.892;-123.962;2023-01-31T10:29:55;102534.45;;;-0.27;60.06
51067;BME280;37112;45.892;-123.962;2023-01-31T10:32:09;102530.60;;;-0.28;60.08
51067;BME280;37112;45.892;-123.962;2023-01-31T10:34:26;102528.68;;;-0.25;60.16
51067;BME280;37112;45.892;-123.962;2023-01-31T10:36:43;102525.89;;;-0.24;60.23
51067;BME280;37112;45.892;-123.962;2023-01-31T10:39:01;102520.48;;;-0.23;60.32
51067;BME280;37112;45.892;-123.962;2023-01-31T10:41:16;102521.52;;;-0.25;60.46
51067;BME280;37112;45.892;-123.962;2023-01-31T10:43:35;102525.54;;;-0.25;60.46
51067;BME280;37112;45.892;-123.962;2023-01-31T10:45:47;102522.58;;;-0.24;60.60
51067;BME280;37112;45.892;-123.962;2023-01-31T10:48:03;102523.63;;;-0.24;60.71
51067;BME280;37112;45.892;-123.962;2023-01-31T10:50:19;102519.27;;;-0.23;60.78
51067;BME280;37112;45.892;-123.962;2023-01-31T10:52:55;102516.33;;;-0.22;60.80
51067;BME280;37112;45.892;-123.962;2023-01-31T10:55:24;102518.25;;;-0.21;60.77
51067;BME280;37112;45.892;-123.962;2023-01-31T10:57:39;102514.75;;;-0.21;60.95
51067;BME280;37112;45.892;-123.962;2023-01-31T10:59:50;102509.52;;;-0.21;61.08
51067;BME280;37112;45.892;-123.962;2023-01-31T11:02:03;102498.69;;;-0.22;61.24
51067;BME280;37112;45.892;-123.962;2023-01-31T11:04:24;102494.67;;;-0.22;61.38
51067;BME280;37112;45.892;-123.962;2023-01-31T11:06:34;102494.16;;;-0.20;61.68
51067;BME280;37112;45.892;-123.962;2023-01-31T11:08:47;102493.48;;;-0.14;61.91
51067;BME280;37112;45.892;-123.962;2023-01-31T11:10:57;102497.89;;;-0.07;62.02
51067;BME280;37112;45.892;-123.962;2023-01-31T11:13:18;102494.77;;;-0.00;62.09
51067;BME280;37112;45.892;-123.962;2023-01-31T11:15:35;102495.50;;;0.06;62.13
51067;BME280;37112;45.892;-123.962;2023-01-31T11:17:46;102495.52;;;0.11;62.18
51067;BME280;37112;45.892;-123.962;2023-01-31T11:19:57;102497.30;;;0.16;62.24